sensor_id;sensor_type;location;lat;lon;timestamp;pressure;altitude;pressure_sealevel;temperature;humidity
46303;BME280;32029;51.358;5.628;2022-07-10T00:01:39;102514.81;;;16.56;64.49
46303;BME280;32029;51.358;5.628;2022-07-10T00:04:06;102509.25;;;16.56;64.50
46303;BME280;32029;51.358;5.628;2022-07-10T00:06:32;102502.00;;;16.55;64.52
46303;BME280;32029;51.358;5.628;2022-07-10T00:08:59;102508.59;;;16.54;64.79
46303;BME280;32029;51.358;5.628;2022-07-10T00:11:26;102508.78;;;16.53;64.75
46303;BME280;32029;51.358;5.628;2022-07-10T00:13:52;102504.47;;;16.50;65.12
46303;BME280;32029;51.358;5.628;2022-07-10T00:16:19;102483.47;;;16.33;65.06
46303;BME280;32029;51.358;5.628;2022-07-10T00:18:46;102511.25;;;16.48;65.15
46303;BME280;32029;51.358;5.628;2022-07-10T00:21:12;102506.75;;;16.47;65.12
46303;BME280;32029;51.358;5.628;2022-07-10T00:23:39;102499.38;;;16.39;65.26
46303;BME280;32029;51.358;5.628;2022-07-10T00:26:06;102511.63;;;16.45;65.53
46303;BME280;32029;51.358;5.628;2022-07-10T00:28:32;102501.75;;;16.42;65.54
46303;BME280;32029;51.358;5.628;2022-07-10T00:30:59;102505.41;;;16.42;65.71
46303;BME280;32029;51.358;5.628;2022-07-10T00:33:26;102505.22;;;16.44;65.66
46303;BME280;32029;51.358;5.628;2022-07-10T00:35:54;102506.56;;;16.48;65.65
46303;BME280;32029;51.358;5.628;2022-07-10T00:38:20;102501.03;;;16.48;65.57
46303;BME280;32029;51.358;5.628;2022-07-10T00:40:47;102498.06;;;16.50;65.40
46303;BME280;32029;51.358;5.628;2022-07-10T00:43:14;102492.34;;;16.51;65.48
46303;BME280;32029;51.358;5.628;2022-07-10T00:45:40;102495.13;;;16.51;65.54
46303;BME280;32029;51.358;5.628;2022-07-10T00:48:08;102491.50;;;16.51;65.76
46303;BME280;32029;51.358;5.628;2022-07-10T00:50:38;102489.94;;;16.48;65.70
46303;BME280;32029;51.358;5.628;2022-07-10T00:53:06;102494.81;;;16.46;66.12
46303;BME280;32029;51.358;5.628;2022-07-10T00:55:34;102493.28;;;16.44;65.78
46303;BME280;32029;51.358;5.628;2022-07-10T00:58:02;102490.00;;;16.40;66.02
46303;BME280;32029;51.358;5.628;2022-07-10T01:00:29;102486.94;;;16.35;65.98
46303;BME280;32029;51.358;5.628;2022-07-10T01:02:56;102482.81;;;16.31;66.40
46303;BME280;32029;51.358;5.628;2022-07-10T01:05:23;102490.81;;;16.26;66.28
46303;BME280;32029;51.358;5.628;2022-07-10T01:07:50;102484.28;;;16.18;66.81
46303;BME280;32029;51.358;5.628;2022-07-10T01:10:16;102477.78;;;16.11;66.99
46303;BME280;32029;51.358;5.628;2022-07-10T01:12:43;102478.00;;;16.02;67.33
46303;BME280;32029;51.358;5.628;2022-07-10T01:15:10;102468.03;;;15.92;67.69
46303;BME280;32029;51.358;5.628;2022-07-10T01:17:37;102467.03;;;15.85;67.86
46303;BME280;32029;51.358;5.628;2022-07-10T01:20:08;102471.78;;;15.77;68.42
46303;BME280;32029;51.358;5.628;2022-07-10T01:22:38;102477.53;;;15.67;68.75
46303;BME280;32029;51.358;5.628;2022-07-10T01:25:06;102459.75;;;15.53;68.86
46303;BME280;32029;51.358;5.628;2022-07-10T01:27:32;102465.09;;;15.55;69.23
46303;BME280;32029;51.358;5.628;2022-07-10T01:29:59;102462.88;;;15.50;69.75
46303;BME280;32029;51.358;5.628;2022-07-10T01:32:26;102459.09;;;15.43;69.91
46303;BME280;32029;51.358;5.628;2022-07-10T01:34:53;102458.78;;;15.38;69.83
46303;BME280;32029;51.358;5.628;2022-07-10T01:37:19;102462.59;;;15.37;70.10
46303;BME280;32029;51.358;5.628;2022-07-10T01:39:46;102451.91;;;15.34;70.05
46303;BME280;32029;51.358;5.628;2022-07-10T01:42:13;102459.50;;;15.32;70.30
46303;BME280;32029;51.358;5.628;2022-07-10T01:44:40;102459.84;;;15.29;70.56
46303;BME280;32029;51.358;5.628;2022-07-10T01:47:06;102453.66;;;15.27;70.88
46303;BME280;32029;51.358;5.628;2022-07-10T01:49:33;102454.69;;;15.26;70.73
46303;BME280;32029;51.358;5.628;2022-07-10T01:52:00;102447.41;;;15.25;71.06
46303;BME280;32029;51.358;5.628;2022-07-10T01:54:28;102451.25;;;15.24;70.98
46303;BME280;32029;51.358;5.628;2022-07-10T01:56:54;102446.06;;;15.20;71.23
46303;BME280;32029;51.358;5.628;2022-07-10T01:59:21;102446.44;;;15.17;71.23
46303;BME280;32029;51.358;5.628;2022-07-10T02:01:48;102436.09;;;15.11;71.73
46303;BME280;32029;51.358;5.628;2022-07-10T02:04:15;102432.97;;;15.14;71.79
46303;BME280;32029;51.358;5.628;2022-07-10T02:07:00;102425.56;;;15.07;71.89
46303;BME280;32029;51.358;5.628;2022-07-10T02:09:26;102437.75;;;15.20;71.91
46303;BME280;32029;51.358;5.628;2022-07-10T02:11:53;102437.41;;;15.24;71.55
46303;BME280;32029;51.358;5.628;2022-07-10T02:14:20;102450.16;;;15.33;71.54
46303;BME280;32029;51.358;5.628;2022-07-10T02:16:46;102448.94;;;15.35;71.74
46303;BME280;32029;51.358;5.628;2022-07-10T02:19:13;102449.28;;;15.32;71.81
46303;BME280;32029;51.358;5.628;2022-07-10T02:21:40;102453.09;;;15.31;72.08
46303;BME280;32029;51.358;5.628;2022-07-10T02:24:06;102446.38;;;15.34;72.01
46303;BME280;32029;51.358;5.628;2022-07-10T02:26:33;102443.25;;;15.37;71.90
46303;BME280;32029;51.358;5.628;2022-07-10T02:29:00;102456.19;;;15.36;71.87
46303;BME280;32029;51.358;5.628;2022-07-10T02:31:26;102437.88;;;15.35;71.82
46303;BME280;32029;51.358;5.628;2022-07-10T02:33:53;102438.88;;;15.42;71.81
46303;BME280;32029;51.358;5.628;2022-07-10T02:36:20;102447.38;;;15.41;72.12
46303;BME280;32029;51.358;5.628;2022-07-10T02:38:47;102434.94;;;15.37;71.99
46303;BME280;32029;51.358;5.628;2022-07-10T02:41:13;102444.63;;;15.33;72.38
46303;BME280;32029;51.358;5.628;2022-07-10T02:43:40;102436.88;;;15.28;72.60
46303;BME280;32029;51.358;5.628;2022-07-10T02:46:07;102429.13;;;15.24;72.54
46303;BME280;32029;51.358;5.628;2022-07-10T02:48:34;102434.81;;;15.30;72.61
46303;BME280;32029;51.358;5.628;2022-07-10T02:51:01;102433.09;;;15.29;72.67
46303;BME280;32029;51.358;5.628;2022-07-10T02:53:28;102431.00;;;15.31;72.83
46303;BME280;32029;51.358;5.628;2022-07-10T02:55:54;102433.56;;;15.33;72.57
46303;BME280;32029;51.358;5.628;2022-07-10T02:58:21;102434.06;;;15.36;72.74
46303;BME280;32029;51.358;5.628;2022-07-10T03:00:48;102428.03;;;15.33;72.70
46303;BME280;32029;51.358;5.628;2022-07-10T03:03:14;102439.59;;;15.36;72.53
46303;BME280;32029;51.358;5.628;2022-07-10T03:05:46;102431.50;;;15.35;72.59
46303;BME280;32029;51.358;5.628;2022-07-10T03:08:13;102436.66;;;15.38;72.85
46303;BME280;32029;51.358;5.628;2022-07-10T03:10:39;102449.09;;;15.42;72.57
46303;BME280;32029;51.358;5.628;2022-07-10T03:13:07;102439.38;;;15.46;72.62
46303;BME280;32029;51.358;5.628;2022-07-10T03:15:34;102436.44;;;15.48;72.40
46303;BME280;32029;51.358;5.628;2022-07-10T03:18:00;102433.84;;;15.46;72.63
46303;BME280;32029;51.358;5.628;2022-07-10T03:20:27;102436.13;;;15.42;72.80
46303;BME280;32029;51.358;5.628;2022-07-10T03:22:54;102424.56;;;15.39;72.90
46303;BME280;32029;51.358;5.628;2022-07-10T03:25:20;102434.25;;;15.35;72.92
46303;BME280;32029;51.358;5.628;2022-07-10T03:27:47;102428.03;;;15.33;73.08
46303;BME280;32029;51.358;5.628;2022-07-10T03:30:14;102431.19;;;15.30;73.02
46303;BME280;32029;51.358;5.628;2022-07-10T03:32:40;102425.25;;;15.33;73.00
46303;BME280;32029;51.358;5.628;2022-07-10T03:35:07;102419.38;;;15.36;73.24
46303;BME280;32029;51.358;5.628;2022-07-10T03:37:34;102421.78;;;15.39;72.99
46303;BME280;32029;51.358;5.628;2022-07-10T03:40:01;102416.25;;;15.39;72.77
46303;BME280;32029;51.358;5.628;2022-07-10T03:42:27;102434.22;;;15.43;72.89
46303;BME280;32029;51.358;5.628;2022-07-10T03:44:54;102437.34;;;15.40;72.79
46303;BME280;32029;51.358;5.628;2022-07-10T03:47:21;102434.94;;;15.37;73.34
46303;BME280;32029;51.358;5.628;2022-07-10T03:49:47;102427.88;;;15.34;73.29
46303;BME280;32029;51.358;5.628;2022-07-10T03:52:14;102420.28;;;15.28;73.43
46303;BME280;32029;51.358;5.628;2022-07-10T03:54:41;102427.41;;;15.23;73.51
46303;BME280;32029;51.358;5.628;2022-07-10T03:57:07;102414.13;;;15.18;73.97
46303;BME280;32029;51.358;5.628;2022-07-10T03:59:52;102418.78;;;15.09;74.26
46303;BME280;32029;51.358;5.628;2022-07-10T04:02:19;102419.53;;;15.03;74.60
46303;BME280;32029;51.358;5.628;2022-07-10T04:04:46;102412.31;;;14.94;74.86
46303;BME280;32029;51.358;5.628;2022-07-10T04:07:13;102423.50;;;15.01;74.97
46303;BME280;32029;51.358;5.628;2022-07-10T04:09:39;102420.94;;;14.99;75.29
46303;BME280;32029;51.358;5.628;2022-07-10T04:12:06;102418.66;;;15.03;75.39
46303;BME280;32029;51.358;5.628;2022-07-10T04:14:33;102417.94;;;15.09;75.40
46303;BME280;32029;51.358;5.628;2022-07-10T04:17:00;102429.47;;;15.20;75.08
46303;BME280;32029;51.358;5.628;2022-07-10T04:19:26;102395.94;;;15.24;74.83
46303;BME280;32029;51.358;5.628;2022-07-10T04:21:53;102423.66;;;15.47;74.27
46303;BME280;32029;51.358;5.628;2022-07-10T04:24:20;102411.97;;;15.59;73.95
46303;BME280;32029;51.358;5.628;2022-07-10T04:26:46;102418.19;;;15.70;73.57
46303;BME280;32029;51.358;5.628;2022-07-10T04:29:13;102423.88;;;15.76;73.47
46303;BME280;32029;51.358;5.628;2022-07-10T04:31:40;102418.34;;;15.76;73.22
46303;BME280;32029;51.358;5.628;2022-07-10T04:34:07;102420.59;;;15.73;73.44
46303;BME280;32029;51.358;5.628;2022-07-10T04:36:34;102406.75;;;15.73;73.50
46303;BME280;32029;51.358;5.628;2022-07-10T04:39:00;102409.69;;;15.71;73.70
46303;BME280;32029;51.358;5.628;2022-07-10T04:41:27;102419.91;;;15.71;73.77
46303;BME280;32029;51.358;5.628;2022-07-10T04:43:54;102416.22;;;15.78;73.72
46303;BME280;32029;51.358;5.628;2022-07-10T04:46:20;102423.63;;;15.86;73.67
46303;BME280;32029;51.358;5.628;2022-07-10T04:48:47;102413.91;;;15.90;73.75
46303;BME280;32029;51.358;5.628;2022-07-10T04:51:14;102406.28;;;15.92;73.82
46303;BME280;32029;51.358;5.628;2022-07-10T04:53:40;102412.13;;;15.97;73.54
46303;BME280;32029;51.358;5.628;2022-07-10T04:56:07;102417.94;;;16.02;73.93
46303;BME280;32029;51.358;5.628;2022-07-10T04:58:34;102417.22;;;16.08;73.50
46303;BME280;32029;51.358;5.628;2022-07-10T05:01:01;102416.09;;;16.17;73.35
46303;BME280;32029;51.358;5.628;2022-07-10T05:03:28;102416.44;;;16.23;73.13
46303;BME280;32029;51.358;5.628;2022-07-10T05:05:55;102418.78;;;16.26;73.05
46303;BME280;32029;51.358;5.628;2022-07-10T05:08:21;102422.25;;;16.28;73.14
46303;BME280;32029;51.358;5.628;2022-07-10T05:10:48;102429.13;;;16.32;73.10
46303;BME280;32029;51.358;5.628;2022-07-10T05:13:15;102432.91;;;16.39;73.21
46303;BME280;32029;51.358;5.628;2022-07-10T05:15:41;102423.16;;;16.43;72.82
46303;BME280;32029;51.358;5.628;2022-07-10T05:18:08;102439.50;;;16.53;72.64
46303;BME280;32029;51.358;5.628;2022-07-10T05:20:35;102430.94;;;16.62;72.57
46303;BME280;32029;51.358;5.628;2022-07-10T05:23:03;102426.38;;;16.70;72.14
46303;BME280;32029;51.358;5.628;2022-07-10T05:25:30;102431.38;;;16.89;71.80
46303;BME280;32029;51.358;5.628;2022-07-10T05:27:58;102427.72;;;17.03;71.53
46303;BME280;32029;51.358;5.628;2022-07-10T05:30:25;102427.53;;;17.20;70.88
46303;BME280;32029;51.358;5.628;2022-07-10T05:32:52;102424.75;;;17.34;70.44
46303;BME280;32029;51.358;5.628;2022-07-10T05:35:18;102433.06;;;17.49;69.48
46303;BME280;32029;51.358;5.628;2022-07-10T05:37:45;102429.78;;;17.60;68.98
46303;BME280;32029;51.358;5.628;2022-07-10T05:40:12;102430.97;;;17.73;69.08
46303;BME280;32029;51.358;5.628;2022-07-10T05:42:39;102424.28;;;17.82;68.84
46303;BME280;32029;51.358;5.628;2022-07-10T05:45:06;102427.59;;;17.92;67.86
46303;BME280;32029;51.358;5.628;2022-07-10T05:47:32;102420.84;;;18.01;67.42
46303;BME280;32029;51.358;5.628;2022-07-10T05:50:04;102417.47;;;18.06;67.04
46303;BME280;32029;51.358;5.628;2022-07-10T05:52:31;102405.50;;;18.05;66.77
46303;BME280;32029;51.358;5.628;2022-07-10T05:54:58;102413.69;;;18.13;66.50
46303;BME280;32029;51.358;5.628;2022-07-10T05:57:24;102418.00;;;18.16;66.63
46303;BME280;32029;51.358;5.628;2022-07-10T05:59:51;102416.47;;;18.13;66.45
46303;BME280;32029;51.358;5.628;2022-07-10T06:02:18;102421.78;;;18.08;66.64
46303;BME280;32029;51.358;5.628;2022-07-10T06:04:46;102422.00;;;18.07;66.71
46303;BME280;32029;51.358;5.628;2022-07-10T06:07:13;102427.31;;;18.08;66.97
46303;BME280;32029;51.358;5.628;2022-07-10T06:09:39;102428.66;;;18.12;66.81
46303;BME280;32029;51.358;5.628;2022-07-10T06:12:06;102426.13;;;18.18;67.08
46303;BME280;32029;51.358;5.628;2022-07-10T06:14:33;102430.44;;;18.20;66.67
46303;BME280;32029;51.358;5.628;2022-07-10T06:17:00;102431.03;;;18.16;66.79
46303;BME280;32029;51.358;5.628;2022-07-10T06:19:26;102432.75;;;18.17;66.40
46303;BME280;32029;51.358;5.628;2022-07-10T06:21:53;102432.09;;;18.15;66.81
46303;BME280;32029;51.358;5.628;2022-07-10T06:24:38;102426.56;;;18.15;66.72
46303;BME280;32029;51.358;5.628;2022-07-10T06:27:05;102425.88;;;18.12;66.89
46303;BME280;32029;51.358;5.628;2022-07-10T06:29:32;102429.97;;;18.17;66.85
46303;BME280;32029;51.358;5.628;2022-07-10T06:31:58;102421.25;;;18.20;66.73
46303;BME280;32029;51.358;5.628;2022-07-10T06:34:25;102421.91;;;18.22;67.08
46303;BME280;32029;51.358;5.628;2022-07-10T06:36:52;102425.41;;;18.30;66.55
46303;BME280;32029;51.358;5.628;2022-07-10T06:39:18;102422.50;;;18.39;65.63
46303;BME280;32029;51.358;5.628;2022-07-10T06:41:45;102422.13;;;18.48;65.07
46303;BME280;32029;51.358;5.628;2022-07-10T06:44:12;102423.03;;;18.55;64.66
46303;BME280;32029;51.358;5.628;2022-07-10T06:46:38;102421.84;;;18.65;64.76
46303;BME280;32029;51.358;5.628;2022-07-10T06:49:05;102435.47;;;18.81;64.46
46303;BME280;32029;51.358;5.628;2022-07-10T06:51:32;102432.81;;;19.01;64.14
46303;BME280;32029;51.358;5.628;2022-07-10T06:53:59;102422.88;;;19.20;63.76
46303;BME280;32029;51.358;5.628;2022-07-10T06:56:25;102424.44;;;19.42;62.60
46303;BME280;32029;51.358;5.628;2022-07-10T06:58:53;102422.38;;;19.57;61.61
46303;BME280;32029;51.358;5.628;2022-07-10T07:01:20;102424.19;;;19.72;61.53
46303;BME280;32029;51.358;5.628;2022-07-10T07:03:46;102421.22;;;19.87;60.90
46303;BME280;32029;51.358;5.628;2022-07-10T07:06:13;102424.25;;;19.98;60.12
46303;BME280;32029;51.358;5.628;2022-07-10T07:08:40;102419.09;;;20.08;60.20
46303;BME280;32029;51.358;5.628;2022-07-10T07:11:06;102418.69;;;20.18;59.63
46303;BME280;32029;51.358;5.628;2022-07-10T07:13:33;102417.81;;;20.24;59.24
46303;BME280;32029;51.358;5.628;2022-07-10T07:16:00;102423.19;;;20.39;58.77
46303;BME280;32029;51.358;5.628;2022-07-10T07:18:27;102427.72;;;20.47;58.57
46303;BME280;32029;51.358;5.628;2022-07-10T07:21:01;102427.31;;;20.50;58.58
46303;BME280;32029;51.358;5.628;2022-07-10T07:23:51;102416.16;;;20.57;58.63
46303;BME280;32029;51.358;5.628;2022-07-10T07:26:18;102433.72;;;20.70;57.89
46303;BME280;32029;51.358;5.628;2022-07-10T07:28:44;102428.16;;;20.84;58.07
46303;BME280;32029;51.358;5.628;2022-07-10T07:31:11;102428.78;;;20.99;57.34
46303;BME280;32029;51.358;5.628;2022-07-10T07:33:38;102434.53;;;21.11;58.17
46303;BME280;32029;51.358;5.628;2022-07-10T07:36:05;102438.56;;;21.28;56.78
46303;BME280;32029;51.358;5.628;2022-07-10T07:38:31;102430.16;;;21.41;56.44
46303;BME280;32029;51.358;5.628;2022-07-10T07:40:58;102434.59;;;21.56;56.18
46303;BME280;32029;51.358;5.628;2022-07-10T07:43:25;102424.00;;;21.71;56.11
46303;BME280;32029;51.358;5.628;2022-07-10T07:45:51;102422.19;;;21.90;56.00
46303;BME280;32029;51.358;5.628;2022-07-10T07:48:18;102418.59;;;22.08;55.04
46303;BME280;32029;51.358;5.628;2022-07-10T07:50:45;102428.88;;;22.20;55.05
46303;BME280;32029;51.358;5.628;2022-07-10T07:53:11;102426.38;;;22.37;54.71
46303;BME280;32029;51.358;5.628;2022-07-10T07:55:38;102433.88;;;22.43;54.81
46303;BME280;32029;51.358;5.628;2022-07-10T07:58:06;102423.09;;;22.47;54.07
46303;BME280;32029;51.358;5.628;2022-07-10T08:00:33;102422.84;;;22.48;53.78
46303;BME280;32029;51.358;5.628;2022-07-10T08:02:59;102433.41;;;22.46;53.33
46303;BME280;32029;51.358;5.628;2022-07-10T08:05:27;102428.91;;;22.45;53.95
46303;BME280;32029;51.358;5.628;2022-07-10T08:07:56;102425.19;;;22.52;53.39
46303;BME280;32029;51.358;5.628;2022-07-10T08:10:25;102420.41;;;22.59;53.33
46303;BME280;32029;51.358;5.628;2022-07-10T08:12:53;102418.84;;;22.63;53.35
46303;BME280;32029;51.358;5.628;2022-07-10T08:15:21;102413.88;;;22.65;53.00
46303;BME280;32029;51.358;5.628;2022-07-10T08:17:53;102420.41;;;22.59;52.76
46303;BME280;32029;51.358;5.628;2022-07-10T08:20:22;102429.53;;;22.47;53.62
46303;BME280;32029;51.358;5.628;2022-07-10T08:22:50;102423.34;;;22.39;53.83
46303;BME280;32029;51.358;5.628;2022-07-10T08:25:17;102423.41;;;22.32;54.55
46303;BME280;32029;51.358;5.628;2022-07-10T08:27:44;102421.06;;;22.29;54.24
46303;BME280;32029;51.358;5.628;2022-07-10T08:30:11;102419.81;;;22.25;53.56
46303;BME280;32029;51.358;5.628;2022-07-10T08:32:38;102426.50;;;22.24;53.88
46303;BME280;32029;51.358;5.628;2022-07-10T08:35:08;102427.56;;;22.23;53.77
46303;BME280;32029;51.358;5.628;2022-07-10T08:37:42;102419.00;;;22.11;54.12
46303;BME280;32029;51.358;5.628;2022-07-10T08:40:13;102415.81;;;22.08;54.17
46303;BME280;32029;51.358;5.628;2022-07-10T08:42:40;102413.84;;;22.15;54.40
46303;BME280;32029;51.358;5.628;2022-07-10T08:45:07;102407.38;;;22.21;54.35
46303;BME280;32029;51.358;5.628;2022-07-10T08:47:35;102416.44;;;22.41;53.72
46303;BME280;32029;51.358;5.628;2022-07-10T08:50:02;102421.59;;;22.44;54.40
46303;BME280;32029;51.358;5.628;2022-07-10T08:52:43;102419.66;;;22.45;53.90
46303;BME280;32029;51.358;5.628;2022-07-10T08:55:13;102420.34;;;22.40;53.76
46303;BME280;32029;51.358;5.628;2022-07-10T08:57:42;102418.28;;;22.29;54.17
46303;BME280;32029;51.358;5.628;2022-07-10T09:00:09;102435.34;;;22.21;54.41
46303;BME280;32029;51.358;5.628;2022-07-10T09:02:36;102426.78;;;22.16;54.46
46303;BME280;32029;51.358;5.628;2022-07-10T09:05:03;102428.06;;;22.07;54.79
46303;BME280;32029;51.358;5.628;2022-07-10T09:07:35;102429.84;;;22.01;55.26
46303;BME280;32029;51.358;5.628;2022-07-10T09:10:10;102414.22;;;21.93;55.32
46303;BME280;32029;51.358;5.628;2022-07-10T09:12:59;102430.06;;;21.99;55.09
46303;BME280;32029;51.358;5.628;2022-07-10T09:15:27;102419.16;;;21.91;55.13
46303;BME280;32029;51.358;5.628;2022-07-10T09:17:59;102419.22;;;21.85;55.58
46303;BME280;32029;51.358;5.628;2022-07-10T09:20:29;102414.88;;;21.89;56.03
46303;BME280;32029;51.358;5.628;2022-07-10T09:25:36;102407.41;;;22.14;55.58
46303;BME280;32029;51.358;5.628;2022-07-10T09:28:03;102418.88;;;22.31;55.42
46303;BME280;32029;51.358;5.628;2022-07-10T09:30:33;102411.50;;;22.43;55.19
46303;BME280;32029;51.358;5.628;2022-07-10T09:43:45;102409.22;;;22.77;53.80
46303;BME280;32029;51.358;5.628;2022-07-10T09:46:13;102408.63;;;22.75;53.89
46303;BME280;32029;51.358;5.628;2022-07-10T09:48:40;102402.19;;;22.74;53.71
46303;BME280;32029;51.358;5.628;2022-07-10T09:51:08;102400.84;;;22.77;53.82
46303;BME280;32029;51.358;5.628;2022-07-10T09:53:40;102394.47;;;22.88;54.13
46303;BME280;32029;51.358;5.628;2022-07-10T09:56:08;102394.94;;;23.10;53.80
46303;BME280;32029;51.358;5.628;2022-07-10T09:58:36;102399.63;;;23.28;53.31
46303;BME280;32029;51.358;5.628;2022-07-10T10:01:07;102379.56;;;23.31;52.55
46303;BME280;32029;51.358;5.628;2022-07-10T10:03:36;102399.72;;;23.40;52.71
46303;BME280;32029;51.358;5.628;2022-07-10T10:06:14;102389.34;;;23.40;52.12
46303;BME280;32029;51.358;5.628;2022-07-10T10:11:15;102391.69;;;23.43;51.89
46303;BME280;32029;51.358;5.628;2022-07-10T10:13:43;102387.50;;;23.53;52.55
46303;BME280;32029;51.358;5.628;2022-07-10T10:16:10;102392.47;;;23.69;52.51
46303;BME280;32029;51.358;5.628;2022-07-10T10:18:37;102380.59;;;23.85;51.42
46303;BME280;32029;51.358;5.628;2022-07-10T10:21:26;102387.34;;;24.08;51.20
46303;BME280;32029;51.358;5.628;2022-07-10T10:23:54;102389.56;;;24.29;50.20
46303;BME280;32029;51.358;5.628;2022-07-10T10:26:22;102386.97;;;24.46;49.87
46303;BME280;32029;51.358;5.628;2022-07-10T10:28:54;102398.41;;;24.56;49.57
46303;BME280;32029;51.358;5.628;2022-07-10T10:31:24;102388.31;;;24.55;49.52
46303;BME280;32029;51.358;5.628;2022-07-10T10:33:56;102394.03;;;24.49;49.41
46303;BME280;32029;51.358;5.628;2022-07-10T10:36:46;102384.38;;;24.44;49.75
46303;BME280;32029;51.358;5.628;2022-07-10T10:39:18;102395.38;;;24.46;50.36
46303;BME280;32029;51.358;5.628;2022-07-10T10:41:50;102387.94;;;24.52;49.97
46303;BME280;32029;51.358;5.628;2022-07-10T10:49:17;102370.72;;;24.83;48.69
46303;BME280;32029;51.358;5.628;2022-07-10T10:52:03;102386.59;;;24.89;48.64
46303;BME280;32029;51.358;5.628;2022-07-10T10:54:34;102379.97;;;24.96;49.06
46303;BME280;32029;51.358;5.628;2022-07-10T10:57:18;102384.97;;;25.05;48.51
46303;BME280;32029;51.358;5.628;2022-07-10T10:59:53;102378.91;;;24.97;48.37
46303;BME280;32029;51.358;5.628;2022-07-10T11:07:59;102379.47;;;24.99;48.61
46303;BME280;32029;51.358;5.628;2022-07-10T11:13:02;102370.66;;;25.30;48.46
46303;BME280;32029;51.358;5.628;2022-07-10T11:15:32;102383.31;;;25.45;47.03
46303;BME280;32029;51.358;5.628;2022-07-10T11:18:03;102375.34;;;25.53;47.56
46303;BME280;32029;51.358;5.628;2022-07-10T11:20:36;102365.25;;;25.69;47.75
46303;BME280;32029;51.358;5.628;2022-07-10T11:26:06;102354.81;;;25.81;46.99
46303;BME280;32029;51.358;5.628;2022-07-10T11:31:09;102359.72;;;25.74;46.99
46303;BME280;32029;51.358;5.628;2022-07-10T11:33:41;102353.25;;;25.74;46.93
46303;BME280;32029;51.358;5.628;2022-07-10T11:36:11;102343.06;;;25.84;46.82
46303;BME280;32029;51.358;5.628;2022-07-10T11:38:41;102349.56;;;26.02;46.58
46303;BME280;32029;51.358;5.628;2022-07-10T11:41:18;102336.44;;;26.24;46.31
46303;BME280;32029;51.358;5.628;2022-07-10T11:43:53;102343.44;;;26.38;46.05
46303;BME280;32029;51.358;5.628;2022-07-10T11:46:23;102333.88;;;26.39;45.46
46303;BME280;32029;51.358;5.628;2022-07-10T11:48:51;102337.56;;;26.23;45.89
46303;BME280;32029;51.358;5.628;2022-07-10T11:51:31;102336.34;;;26.36;46.10
46303;BME280;32029;51.358;5.628;2022-07-10T11:54:05;102343.53;;;26.60;46.14
46303;BME280;32029;51.358;5.628;2022-07-10T11:56:35;102341.00;;;26.81;45.26
46303;BME280;32029;51.358;5.628;2022-07-10T11:59:07;102335.25;;;26.93;44.90
46303;BME280;32029;51.358;5.628;2022-07-10T12:01:41;102338.66;;;26.95;45.06
46303;BME280;32029;51.358;5.628;2022-07-10T12:04:09;102336.44;;;26.97;44.74
46303;BME280;32029;51.358;5.628;2022-07-10T12:06:38;102338.19;;;27.03;44.22
46303;BME280;32029;51.358;5.628;2022-07-10T12:09:07;102328.97;;;27.07;44.30
46303;BME280;32029;51.358;5.628;2022-07-10T12:11:36;102323.69;;;27.11;44.21
46303;BME280;32029;51.358;5.628;2022-07-10T12:14:18;102325.84;;;27.26;44.56
46303;BME280;32029;51.358;5.628;2022-07-10T12:16:50;102311.94;;;27.41;43.42
46303;BME280;32029;51.358;5.628;2022-07-10T12:19:23;102316.19;;;27.44;43.98
46303;BME280;32029;51.358;5.628;2022-07-10T12:21:50;102318.22;;;27.48;44.04
46303;BME280;32029;51.358;5.628;2022-07-10T12:24:18;102322.84;;;27.59;44.11
46303;BME280;32029;51.358;5.628;2022-07-10T12:26:52;102329.69;;;27.69;43.15
46303;BME280;32029;51.358;5.628;2022-07-10T12:31:51;102323.53;;;27.45;43.28
46303;BME280;32029;51.358;5.628;2022-07-10T12:34:18;102336.88;;;27.27;43.44
46303;BME280;32029;51.358;5.628;2022-07-10T12:36:53;102325.91;;;27.09;44.36
46303;BME280;32029;51.358;5.628;2022-07-10T12:39:21;102329.69;;;26.98;43.79
46303;BME280;32029;51.358;5.628;2022-07-10T12:42:01;102333.00;;;26.73;44.71
46303;BME280;32029;51.358;5.628;2022-07-10T12:44:33;102335.34;;;26.59;45.35
46303;BME280;32029;51.358;5.628;2022-07-10T12:47:05;102333.38;;;26.43;45.20
46303;BME280;32029;51.358;5.628;2022-07-10T12:49:49;102339.25;;;26.24;45.36
46303;BME280;32029;51.358;5.628;2022-07-10T12:52:41;102334.56;;;26.13;46.06
46303;BME280;32029;51.358;5.628;2022-07-10T12:57:57;102328.19;;;26.34;45.89
46303;BME280;32029;51.358;5.628;2022-07-10T13:00:49;102323.50;;;26.57;45.65
46303;BME280;32029;51.358;5.628;2022-07-10T13:03:20;102314.72;;;26.75;45.59
46303;BME280;32029;51.358;5.628;2022-07-10T13:05:51;102318.09;;;26.94;45.71
46303;BME280;32029;51.358;5.628;2022-07-10T13:08:19;102317.53;;;27.14;44.96
46303;BME280;32029;51.358;5.628;2022-07-10T13:10:49;102324.66;;;27.22;44.49
46303;BME280;32029;51.358;5.628;2022-07-10T13:13:16;102306.59;;;27.18;43.66
46303;BME280;32029;51.358;5.628;2022-07-10T13:15:44;102305.31;;;27.30;43.99
46303;BME280;32029;51.358;5.628;2022-07-10T13:18:18;102317.31;;;27.43;43.58
46303;BME280;32029;51.358;5.628;2022-07-10T13:20:45;102318.53;;;27.52;43.12
46303;BME280;32029;51.358;5.628;2022-07-10T13:23:12;102307.59;;;27.55;43.46
46303;BME280;32029;51.358;5.628;2022-07-10T13:25:40;102309.59;;;27.60;43.59
46303;BME280;32029;51.358;5.628;2022-07-10T13:28:08;102292.69;;;27.60;43.77
46303;BME280;32029;51.358;5.628;2022-07-10T13:30:35;102287.03;;;27.60;43.52
46303;BME280;32029;51.358;5.628;2022-07-10T13:33:02;102297.59;;;27.70;43.74
46303;BME280;32029;51.358;5.628;2022-07-10T13:35:31;102291.19;;;27.74;43.11
46303;BME280;32029;51.358;5.628;2022-07-10T13:37:59;102297.66;;;27.75;43.47